Bogota, Colombia
Current Conditions -  °F | °C
As of 3:55 AM on Wednesday 28 Jan 2015 (Local Time) from KQQY Reporting Station
Broken Clouds Broken Clouds  
Wind Chill: 77°   Ceiling: 9000
Heat Index: 79°   Visibility: 6mi
Dew Point: 68°   Wind: 1mph
Humidity: 73%   Direction: NA
Pressure: 29.9"   Gusts: NA
Location:  4.63°N, 74.09°W
Report Text: KQQY 280855Z AUTO VRB01KT 9999 FEW060 BKN090 25/20 A2990 RMK AO2 SLP098 T02520200 55005 $
Loading
Personal Weather Stations






























Interactive Weather Map New forecast layout! Learn more

10-Day Weather Forecast

Advertisements
Track Severe Weather on mobile